Historyczne dane pomiarowe

Dodano dane terminowe – wersja testowa.

Dane z okresu 1951-2019

Wersja bazy: 1.34 [2019-03-16, lista zmian], aktualizacja planowana na 2019-04-15

Dane meteo z obszaru Polski uzyskane na podstawie danych udostępnionych przez Instytut Meteorologii i Gospodarki Wodnej – Państwowy Instytut Badawczy.

 

Wybierz Datę:    

       

TemperaturaWilgotnośćWiatrCiśnienieOpadyŚniegCzas trwania zjawisk
 Stacja t tx tn tng RH VA  wxwx mslp ppp RRR   cm mm wxwxwxwxwxwxwx
1987-08-14 13.3 18.3 6.8- 85.0- 7.0 1.7---- 0.3------------
1987-08-13 13.3 20.3 6.4- 74.3- 3.0 1.3---- 0.0------------
1987-08-12 12.8 18.7 6.0- 84.0- 4.0 0.7---- 0.0------------
1987-08-11 12.7 16.8 11.0- 86.5- 6.7 3.7---- 0.8------------
1987-08-10 14.1 19.4 13.0- 91.0- 7.0 3.0---- 2.9------------
1987-08-09 16.8 24.2 9.4- 76.8- 4.7 1.0---- 3.5------------
1987-08-08 14.7 21.7 6.5- 70.5- 3.7 1.7---- 0.0------------
1987-08-07 12.2 18.8 5.4- 76.8- 3.7 2.3---- 0.0------------
1987-08-06 11.7 15.1 8.6- 81.0- 5.3 2.3---- 1.1------------
1987-08-05 12.8 17.9 7.8- 76.8- 4.0 3.7---- 0.0------------
1987-08-04 14.4 17.9 11.9- 76.5- 5.3 4.3---- 2.0------------
1987-08-03 14.7 19.8 8.8- 76.3- 4.0 3.0---- 0.3------------
1987-08-02 14.1 19.1 11.3- 77.5- 6.3 2.3---- 0.5------------
1987-08-01 15.0 19.4 13.4- 91.8- 6.3 1.7---- 7.1------------
1987-07-31 16.2 20.9 13.2- 83.5- 7.0 3.3---- 0.3------------
1987-07-30 17.3 24.9 7.6- 75.3- 3.3 0.7---- 1.0------------
1987-07-29 14.9 19.4 10.4- 79.0- 5.0 2.0---- 0.0------------
1987-07-28 13.1 16.0 11.9- 84.8- 7.0 3.7---- 0.8------------
1987-07-27 12.8 18.2 8.8- 72.8- 5.0 6.3---- 9.1------------
1987-07-26 14.0 17.7 11.0- 76.3- 4.3 2.3---- 0.0------------
1987-07-25 18.1 22.1 15.5- 76.8- 3.0 2.0---- 0.0------------
1987-07-24 20.1 25.3 14.7- 75.0- 3.3 1.7---- 0.0------------
1987-07-23 19.8 27.0 10.9- 80.3- 4.7 1.3---- 0.0------------
1987-07-22 18.7 23.4 15.8- 85.8- 3.3 0.7---- 0.0------------
1987-07-21 18.0 25.2 9.8- 85.5- 3.7 1.7---- 5.0------------
1987-07-20 18.3 23.8 15.3- 89.3- 4.3 2.3---- 0.0------------
1987-07-19 19.2 23.8 16.5- 84.5- 6.3 2.7---- 15.7------------
1987-07-18 20.2 25.8 14.8- 92.5- 5.3 1.0---- 0.0------------
1987-07-17 20.7 30.6 14.6- 79.0- 5.3 5.0---- 9.7------------
1987-07-16 19.6 27.1 10.0- 68.3- 1.7 3.0---- 1.1------------
1987-07-15 17.2 23.8 6.4- 66.0- 1.3 3.7---- 0.0------------
1987-07-14 15.5 21.6 6.4- 72.8- 1.3 0.7---- 0.0------------
1987-07-13 16.0 20.0 10.2- 79.5- 4.0 1.7---- 0.0------------
1987-07-12 20.5 27.8 14.2- 73.5- 5.0 3.0---- 1.0------------
1987-07-11 16.6 24.4 9.1- 72.0- 5.3 3.7---- 0.0------------
1987-07-10 15.4 19.2 10.0- 65.3- 3.3 3.0---- 0.0------------
1987-07-09 16.6 19.7 15.0- 85.3- 7.0 1.7---- 0.1------------
1987-07-08 21.0 29.6 14.4- 74.3- 4.7 1.7---- 15.8------------
1987-07-07 20.6 28.0 8.6- 65.0- 1.7 1.3---- 0.0------------
1987-07-06 18.4 24.6 6.8- 67.8- 1.7 1.3---- 0.0------------
1987-07-05 16.4 21.4 9.6- 69.8- 2.7 2.3---- 0.0------------
1987-07-04 17.6 23.3 9.6- 73.3- 3.7 2.0---- 0.0------------
1987-07-03 18.1 24.3 10.4- 76.5- 1.7 1.0---- 0.0------------
1987-07-02 19.3 23.1 15.7- 75.5- 3.0 0.3---- 0.1------------
1987-07-01 23.8 32.6 18.0- 79.5- 2.7 1.3---- 1.5------------
1987-06-30 24.7 31.3 15.8- 70.0- 0.7 1.7---- 0.0------------
1987-06-29 21.7 27.2 15.2- 79.0- 3.3 0.7---- 0.0------------
1987-06-28 19.0 23.9 14.6- 79.0- 6.3 2.3---- 0.0------------
1987-06-27 18.3 22.3 15.5- 75.3- 4.7 2.3---- 0.0------------
1987-06-26 17.6 23.7 9.9- 74.5- 3.7 2.3---- 0.0------------
1987-06-25 14.1 18.3 11.0- 82.3- 6.3 3.7---- 0.4------------
1987-06-24 15.2 19.8 11.8- 81.3- 5.0 2.3---- 4.7------------
1987-06-23 16.3 21.2 10.6- 75.5- 6.0 1.7---- 1.1------------
1987-06-22 14.5 17.1 12.8- 90.5- 7.7 3.3---- 0.0------------
1987-06-21 15.2 22.8 7.4- 89.8- 4.3 3.0---- 5.6------------
1987-06-20 15.0 21.6 8.5- 79.5- 6.0 4.3---- 1.4------------
1987-06-19 12.9 18.6 7.9- 72.8- 6.0 1.7---- 0.0------------
1987-06-18 10.9 15.2 7.2- 78.3- 5.3 3.7---- 3.9------------
1987-06-17 13.4 16.2 9.8- 61.5- 6.0 3.0---- 0.0------------
1987-06-16 12.1 24.6 9.6- 87.8- 8.0 4.3---- 0.3------------
504.8 ms

 

Źródłem pochodzenia danych jest Instytut Meteorologii i Gospodarki Wodnej – Państwowy Instytut Badawczy. Dane Instytutu Meteorologii i Gospodarki Wodnej – Państwowego Instytutu Badawczego zostały przetworzone.

Dane źródłowe można odnaleźć na stronie https://dane.imgw.pl